Mariq — SVA2152 — position and weather

sailwx.info

Track history (hours):
 
Tides and Currents Weather Stations Pressure Air Temp Water Temp Dewpoint Dewpoint Depression Visibility Wind Speed Wind Dir Waves Ship Positions

Mariq

Last reported at 2017-Jan-04 15:14 UTC. Time now 2017-Jan-18 12:09 UTC.
Position N 37°42' E 024°04'.
Warning: this ship's position is 13 days out of date.

Length 57 m.

Type: Tanker. MMSI: 239758424.

Date/timePositionNaut miles runAvg speedWind from/ knotsBaromVisibWave heightAir tempDewpointWater temp
2017-Jan-04 15:14N 37°42' E 024°04'0 0.0
2017-Jan-04 14:19N 37°42' E 024°04'0 0.0
2017-Jan-04 13:33N 37°42' E 024°04'0 0.0
2017-Jan-04 12:33N 37°42' E 024°04'0 0.0
2017-Jan-04 11:33N 37°42' E 024°04'0 0.0
2017-Jan-04 10:33N 37°42' E 024°04'0 0.0
2017-Jan-04 09:33N 37°42' E 024°04'0 0.0
2017-Jan-04 08:33N 37°42' E 024°04'0 0.0
2017-Jan-04 07:33N 37°42' E 024°04'0 0.0
2017-Jan-04 06:33N 37°42' E 024°04'0 0.0
2017-Jan-02 17:23N 37°42' E 024°04'72 9.2
2017-Jan-02 09:31N 37°20' E 025°31'0 0.4
2017-Jan-02 08:33N 37°20' E 025°31'16 8.3
2017-Jan-02 06:34N 37°18' E 025°52'  
2016-Dec-26 16:33N 37°27' E 024°16'17 1.5
2016-Dec-26 05:25N 37°41' E 024°05'  
Track history (hours):
 
Tides and Currents Weather Stations Pressure Air Temp Water Temp Dewpoint Dewpoint Depression Visibility Wind Speed Wind Dir Waves Ship Positions

Mariq

Last reported at 2017-Jan-04 15:14 UTC. Time now 2017-Jan-18 12:09 UTC.
Position N 37°42' E 024°04'.
Warning: this ship's position is 13 days out of date.

Length 57 m.

Type: Tanker. MMSI: 239758424.

Date/timePositionNaut miles runAvg speedWind from/ knotsBaromVisibWave heightAir tempDewpointWater temp
2017-Jan-04 15:14N 37°42' E 024°04'0 0.0
2017-Jan-04 14:19N 37°42' E 024°04'0 0.0
2017-Jan-04 13:33N 37°42' E 024°04'0 0.0
2017-Jan-04 12:33N 37°42' E 024°04'0 0.0
2017-Jan-04 11:33N 37°42' E 024°04'0 0.0
2017-Jan-04 10:33N 37°42' E 024°04'0 0.0
2017-Jan-04 09:33N 37°42' E 024°04'0 0.0
2017-Jan-04 08:33N 37°42' E 024°04'0 0.0
2017-Jan-04 07:33N 37°42' E 024°04'0 0.0
2017-Jan-04 06:33N 37°42' E 024°04'0 0.0
2017-Jan-02 17:23N 37°42' E 024°04'72 9.2
2017-Jan-02 09:31N 37°20' E 025°31'0 0.4
2017-Jan-02 08:33N 37°20' E 025°31'16 8.3
2017-Jan-02 06:34N 37°18' E 025°52'  
2016-Dec-26 16:33N 37°27' E 024°16'17 1.5
2016-Dec-26 05:25N 37°41' E 024°05'  

Dump ship's entire track history